Time;durP1;ratioP1;P1;durP2;ratioP2;P2;SDS_P1;SDS_P2;PMS_P1;PMS_P2;Temp;Humidity;BMP_temperature;BMP_pressure;BME280_temperature;BME280_humidity;BME280_pressure;Samples;Min_cycle;Max_cycle;Signal;HPM_P1;HPM_P2
2022/04/08 00:00:16;;;;;;;9.90;4.20;;;;;9.60;95815.40;;;;110725;1252;41194;-69
2022/04/08 00:03:01;;;;;;;10.40;4.60;;;;;9.60;95812.40;;;;110684;1254;41339;-69
2022/04/08 00:05:31;;;;;;;8.80;3.50;;;;;9.60;95814.80;;;;110779;1251;42282;-69
2022/04/08 00:08:00;;;;;;;9.60;3.80;;;;;9.60;95821.20;;;;110743;1250;41159;-69
2022/04/08 00:10:29;;;;;;;9.90;3.90;;;;;9.60;95826.40;;;;110882;1251;41136;-69
2022/04/08 00:13:00;;;;;;;8.50;3.90;;;;;9.60;95825.60;;;;110808;1251;41946;-69
2022/04/08 00:15:33;;;;;;;10.90;4.40;;;;;9.60;95825.80;;;;110827;1251;41149;-69
2022/04/08 00:18:05;;;;;;;10.00;4.70;;;;;9.70;95831.60;;;;110934;1250;40862;-69
2022/04/08 00:20:35;;;;;;;10.00;4.30;;;;;9.70;95833.80;;;;110879;1250;41161;-69
2022/04/08 00:23:05;;;;;;;9.80;4.40;;;;;9.70;95832.80;;;;110691;1252;41169;-69
2022/04/08 00:25:36;;;;;;;12.00;4.90;;;;;9.70;95833.20;;;;110717;1251;41150;-70
2022/04/08 00:28:07;;;;;;;8.60;4.00;;;;;9.72;95833.20;;;;110839;1249;41186;-69
2022/04/08 00:30:37;;;;;;;10.50;4.40;;;;;9.70;95831.00;;;;110655;1251;41328;-69
2022/04/08 00:33:07;;;;;;;9.80;4.30;;;;;9.70;95830.20;;;;110639;1252;41156;-69
2022/04/08 00:35:38;;;;;;;10.60;4.60;;;;;9.70;95843.00;;;;110658;1252;41300;-70
2022/04/08 00:38:07;;;;;;;10.20;4.20;;;;;9.70;95855.80;;;;110680;1252;41308;-70
2022/04/08 00:40:37;;;;;;;10.00;4.20;;;;;9.70;95855.40;;;;110704;1252;41187;-70
2022/04/08 00:43:13;;;;;;;8.30;4.00;;;;;9.70;95861.00;;;;110701;1250;41152;-70
2022/04/08 00:45:43;;;;;;;12.40;4.00;;;;;9.70;95858.00;;;;110867;1251;41869;-69
2022/04/08 00:48:13;;;;;;;10.30;3.90;;;;;9.70;95865.00;;;;110845;1251;41150;-71
2022/04/08 00:50:44;;;;;;;9.50;4.40;;;;;9.70;95863.40;;;;110834;1251;41149;-68
2022/04/08 00:53:13;;;;;;;8.90;4.00;;;;;9.70;95856.40;;;;110743;1252;41603;-68
2022/04/08 00:55:45;;;;;;;8.30;3.70;;;;;9.80;95855.20;;;;110691;1252;41256;-70
2022/04/08 00:58:16;;;;;;;9.10;3.90;;;;;9.70;95855.20;;;;110629;1252;42346;-70
2022/04/08 01:00:47;;;;;;;8.60;4.30;;;;;9.78;95855.00;;;;110872;1251;41299;-70
2022/04/08 01:03:16;;;;;;;8.90;4.20;;;;;9.72;95858.60;;;;110931;1249;41143;-70
2022/04/08 01:05:47;;;;;;;9.60;4.20;;;;;9.80;95862.80;;;;110945;1250;41262;-68
2022/04/08 01:08:18;;;;;;;9.00;4.20;;;;;9.70;95863.40;;;;110665;1251;41157;-70
2022/04/08 01:10:50;;;;;;;8.10;3.90;;;;;9.70;95872.80;;;;110806;1249;41182;-69
2022/04/08 01:13:22;;;;;;;10.10;3.70;;;;;9.70;95877.40;;;;110741;1252;41177;-70
2022/04/08 01:15:54;;;;;;;9.80;4.10;;;;;9.70;95880.00;;;;110718;1251;41386;-69
2022/04/08 01:18:24;;;;;;;9.40;4.20;;;;;9.70;95891.40;;;;110733;1252;41730;-69
2022/04/08 01:20:55;;;;;;;7.80;3.70;;;;;9.70;95896.40;;;;110877;1250;41267;-70
2022/04/08 01:23:26;;;;;;;9.00;3.80;;;;;9.70;95902.80;;;;110914;1249;41156;-70
2022/04/08 01:25:56;;;;;;;8.30;3.60;;;;;9.70;95904.60;;;;110723;1249;41146;-69
2022/04/08 01:28:27;;;;;;;9.60;4.20;;;;;9.70;95907.40;;;;110706;1252;41375;-69
2022/04/08 01:30:57;;;;;;;8.10;3.40;;;;;9.70;95907.20;;;;110724;1250;41821;-69
2022/04/08 01:33:27;;;;;;;8.20;3.90;;;;;9.70;95908.60;;;;110767;1250;41148;-69
2022/04/08 01:35:58;;;;;;;7.90;3.60;;;;;9.70;95909.00;;;;110847;1249;41770;-71
2022/04/08 01:38:28;;;;;;;;;;;;;9.70;95903.80;;;;110739;1251;41556;-68
2022/04/08 01:40:58;;;;;;;8.40;3.70;;;;;9.62;95906.80;;;;110855;1251;41641;-69
2022/04/08 01:43:28;;;;;;;9.30;4.50;;;;;9.60;95911.60;;;;110691;1251;42450;-69
2022/04/08 01:45:58;;;;;;;9.70;3.90;;;;;9.60;95914.60;;;;110703;1249;41595;-69
2022/04/08 01:48:28;;;;;;;9.10;4.10;;;;;9.60;95915.00;;;;110850;1250;41241;-69
2022/04/08 01:51:00;;;;;;;10.90;4.40;;;;;9.60;95911.20;;;;110714;1250;41292;-70
2022/04/08 01:53:30;;;;;;;8.30;3.80;;;;;9.60;95907.40;;;;110739;1252;41158;-69
2022/04/08 01:56:00;;;;;;;9.80;4.40;;;;;9.50;95908.20;;;;110853;1251;42478;-69
2022/04/08 01:58:30;;;;;;;14.50;3.80;;;;;9.42;95909.20;;;;110911;1249;41621;-69
2022/04/08 02:01:01;;;;;;;8.50;3.30;;;;;9.40;95905.00;;;;110936;1249;41815;-69
2022/04/08 02:03:33;;;;;;;8.60;3.90;;;;;9.30;95900.00;;;;110983;1249;41151;-69
2022/04/08 02:06:03;;;;;;;9.00;4.00;;;;;9.30;95898.20;;;;110716;1252;41161;-69
2022/04/08 02:08:34;;;;;;;9.10;3.80;;;;;9.20;95890.20;;;;111017;1249;41187;-70
2022/04/08 02:11:03;;;;;;;7.80;3.40;;;;;9.10;95892.20;;;;111049;1250;41183;-70
2022/04/08 02:13:35;;;;;;;7.80;3.30;;;;;9.10;95888.00;;;;110706;1250;41173;-69
2022/04/08 02:16:04;;;;;;;8.30;2.90;;;;;9.00;95888.40;;;;110904;1249;41489;-69
2022/04/08 02:18:34;;;;;;;7.40;3.30;;;;;8.94;95888.20;;;;110807;1249;41181;-70
2022/04/08 02:21:05;;;;;;;8.70;3.10;;;;;8.90;95889.00;;;;110860;1251;41181;-69
2022/04/08 02:23:36;;;;;;;7.40;3.20;;;;;8.80;95896.80;;;;110711;1252;41200;-70
2022/04/08 02:26:06;;;;;;;7.60;3.50;;;;;8.70;95895.00;;;;110814;1249;41313;-67
2022/04/08 02:28:36;;;;;;;7.90;3.60;;;;;8.60;95901.60;;;;110947;1249;41591;-70
2022/04/08 02:31:07;;;;;;;8.50;3.70;;;;;8.50;95906.20;;;;110754;1251;41822;-69
2022/04/08 02:33:37;;;;;;;10.10;3.70;;;;;8.30;95905.60;;;;110978;1249;42787;-70
2022/04/08 02:36:08;;;;;;;8.80;3.60;;;;;8.30;95910.20;;;;110756;1250;41278;-70
2022/04/08 02:38:38;;;;;;;8.50;3.20;;;;;8.20;95896.80;;;;110843;1251;41254;-71
2022/04/08 02:41:07;;;;;;;9.30;3.60;;;;;8.10;95901.20;;;;110826;1251;41142;-70
2022/04/08 02:43:37;;;;;;;7.80;3.30;;;;;8.08;95900.00;;;;110816;1249;41263;-70
2022/04/08 02:46:07;;;;;;;7.50;3.10;;;;;8.00;95892.80;;;;110920;1250;42373;-70
2022/04/08 02:48:37;;;;;;;7.70;3.20;;;;;8.00;95909.60;;;;110748;1251;41600;-69
2022/04/08 02:51:07;;;;;;;10.30;4.10;;;;;7.90;95916.80;;;;110744;1250;41264;-70
2022/04/08 02:53:36;;;;;;;10.70;4.20;;;;;7.90;95921.20;;;;110929;1250;41203;-70
2022/04/08 02:56:06;;;;;;;8.70;3.90;;;;;7.80;95924.40;;;;110948;1249;41601;-71
2022/04/08 02:58:37;;;;;;;8.70;3.50;;;;;7.80;95929.60;;;;110908;1251;41785;-70
2022/04/08 03:01:06;;;;;;;9.80;4.30;;;;;7.80;95933.80;;;;110720;1251;41264;-70
2022/04/08 03:03:35;;;;;;;9.70;4.60;;;;;7.80;95934.00;;;;110828;1252;41544;-70
2022/04/08 03:06:05;;;;;;;10.60;4.80;;;;;7.84;95938.00;;;;110846;1251;41273;-69
2022/04/08 03:08:35;;;;;;;11.30;5.00;;;;;7.82;95933.00;;;;110636;1252;41398;-69
2022/04/08 03:11:05;;;;;;;12.20;4.90;;;;;7.90;95938.00;;;;111026;1249;41932;-69
2022/04/08 03:13:35;;;;;;;9.80;5.00;;;;;7.86;95935.40;;;;110849;1250;41139;-69
2022/04/08 03:16:05;;;;;;;9.20;4.40;;;;;7.84;95944.40;;;;110667;1251;41271;-69
2022/04/08 03:18:34;;;;;;;9.10;3.80;;;;;7.88;95940.80;;;;110829;1250;41154;-69
2022/04/08 03:21:03;;;;;;;7.60;3.20;;;;;7.90;95945.20;;;;110702;1252;41185;-69
2022/04/08 03:23:32;;;;;;;8.40;3.40;;;;;7.90;95939.40;;;;110913;1249;41344;-71
2022/04/08 03:26:02;;;;;;;8.10;3.50;;;;;7.94;95939.60;;;;110828;1250;41824;-69
2022/04/08 03:28:31;;;;;;;8.70;3.90;;;;;7.98;95944.60;;;;110963;1249;41613;-69
2022/04/08 03:31:01;;;;;;;10.10;4.30;;;;;7.96;95945.20;;;;110682;1252;41162;-69
2022/04/08 03:33:30;;;;;;;11.70;5.10;;;;;7.90;95943.60;;;;110864;1251;41151;-70
2022/04/08 03:36:00;;;;;;;10.10;4.40;;;;;7.80;95942.00;;;;110783;1252;42427;-70
2022/04/08 03:38:29;;;;;;;9.20;4.10;;;;;7.78;95945.60;;;;110986;1249;41157;-70
2022/04/08 03:40:59;;;;;;;9.30;4.00;;;;;7.70;95941.20;;;;110891;1249;41624;-70
2022/04/08 03:43:28;;;;;;;10.70;4.80;;;;;7.70;95950.00;;;;110862;1250;41905;-69
2022/04/08 03:46:01;;;;;;;11.20;4.60;;;;;7.60;95955.40;;;;110681;1252;41148;-69
2022/04/08 03:48:31;;;;;;;9.80;4.60;;;;;7.50;95967.60;;;;110585;1249;41913;-69
2022/04/08 03:51:02;;;;;;;8.60;3.90;;;;;7.50;95975.00;;;;110868;1252;41385;-69
2022/04/08 03:53:31;;;;;;;9.20;3.60;;;;;7.40;95976.40;;;;110755;1250;41184;-69
2022/04/08 03:56:02;;;;;;;8.10;3.70;;;;;7.40;95982.00;;;;110972;1249;41961;-69
2022/04/08 03:58:31;;;;;;;;;;;;;7.30;95986.60;;;;110986;1249;41144;-68
2022/04/08 04:01:00;;;;;;;10.70;3.50;;;;;7.30;95987.60;;;;110671;1252;42126;-69
2022/04/08 04:03:29;;;;;;;9.90;4.10;;;;;7.30;95987.00;;;;110701;1252;41171;-69
2022/04/08 04:05:58;;;;;;;9.50;4.10;;;;;7.30;95994.00;;;;110738;1252;41612;-69
2022/04/08 04:08:27;;;;;;;8.00;3.70;;;;;7.28;95998.00;;;;110813;1251;41160;-69
2022/04/08 04:10:56;;;;;;;8.60;3.80;;;;;7.26;95997.40;;;;110982;1250;41629;-69
2022/04/08 04:13:26;;;;;;;9.00;3.90;;;;;7.24;96001.00;;;;110853;1252;41269;-70
2022/04/08 04:15:55;;;;;;;10.90;4.30;;;;;7.26;96000.00;;;;110911;1250;42221;-68
2022/04/08 04:18:25;;;;;;;9.20;3.90;;;;;7.28;96011.80;;;;110825;1250;41609;-69
2022/04/08 04:20:54;;;;;;;9.40;3.50;;;;;7.30;96017.40;;;;110794;1250;41264;-69
2022/04/08 04:23:23;;;;;;;8.10;3.60;;;;;7.30;96018.60;;;;110845;1250;41265;-69
2022/04/08 04:25:52;;;;;;;9.20;4.00;;;;;7.30;96023.00;;;;110797;1250;41615;-69
2022/04/08 04:28:21;;;;;;;9.50;3.60;;;;;7.30;96026.00;;;;110907;1252;41161;-69
2022/04/08 04:30:53;;;;;;;9.60;3.10;;;;;7.30;96027.00;;;;110986;1251;41187;-69
2022/04/08 04:33:22;;;;;;;8.30;3.10;;;;;7.40;96033.80;;;;111004;1250;41155;-70
2022/04/08 04:35:51;;;;;;;8.40;3.90;;;;;7.40;96033.00;;;;110981;1251;41156;-69
2022/04/08 04:38:20;;;;;;;10.40;4.20;;;;;7.50;96032.40;;;;110795;1250;41140;-71
2022/04/08 04:40:50;;;;;;;11.20;4.40;;;;;7.56;96027.40;;;;110744;1253;41135;-68
2022/04/08 04:43:19;;;;;;;10.60;5.00;;;;;7.60;96023.80;;;;110819;1252;41443;-68
2022/04/08 04:45:49;;;;;;;12.40;5.90;;;;;7.70;96026.80;;;;110773;1251;41895;-69
2022/04/08 04:48:22;;;;;;;13.40;5.50;;;;;7.80;96030.20;;;;110828;1250;41857;-68
2022/04/08 04:50:54;;;;;;;13.50;5.50;;;;;7.88;96035.00;;;;110941;1250;41155;-68
2022/04/08 04:53:24;;;;;;;12.20;5.30;;;;;8.00;96043.20;;;;110878;1250;41195;-68
2022/04/08 04:55:54;;;;;;;14.90;6.30;;;;;8.10;96041.40;;;;110861;1253;41154;-69
2022/04/08 04:58:23;;;;;;;15.60;6.60;;;;;8.20;96033.40;;;;110818;1252;41419;-69
2022/04/08 05:00:52;;;;;;;14.90;6.70;;;;;8.36;96038.20;;;;110820;1250;41890;-73
2022/04/08 05:03:21;;;;;;;15.00;6.40;;;;;8.50;96043.60;;;;110844;1250;41165;-71
2022/04/08 05:05:53;;;;;;;14.10;6.00;;;;;8.60;96037.00;;;;110877;1250;41372;-69
2022/04/08 05:08:22;;;;;;;16.70;6.90;;;;;8.80;96042.00;;;;110727;1252;41160;-68
2022/04/08 05:10:51;;;;;;;17.50;8.00;;;;;8.98;96047.00;;;;110943;1249;41160;-69
2022/04/08 05:13:20;;;;;;;16.10;8.00;;;;;9.10;96044.40;;;;110875;1252;41683;-70
2022/04/08 05:15:49;;;;;;;21.00;8.90;;;;;9.24;96040.40;;;;110628;1252;41150;-68
2022/04/08 05:18:17;;;;;;;21.60;9.90;;;;;9.36;96045.40;;;;110831;1253;42394;-69
2022/04/08 05:20:48;;;;;;;20.60;10.20;;;;;9.46;96053.80;;;;110906;1250;41268;-69
2022/04/08 05:23:17;;;;;;;16.90;8.30;;;;;9.58;96061.40;;;;110792;1251;41171;-69
2022/04/08 05:25:46;;;;;;;14.70;6.80;;;;;9.66;96058.20;;;;110847;1251;42388;-69
2022/04/08 05:28:15;;;;;;;15.20;6.50;;;;;9.74;96069.80;;;;110866;1251;41150;-69
2022/04/08 05:30:44;;;;;;;12.10;6.10;;;;;9.80;96079.80;;;;110738;1252;41984;-69
2022/04/08 05:33:16;;;;;;;12.60;5.40;;;;;9.92;96081.60;;;;110619;1253;41165;-69
2022/04/08 05:35:45;;;;;;;13.10;5.30;;;;;10.00;96079.60;;;;110670;1253;41380;-68
2022/04/08 05:38:15;;;;;;;10.70;4.80;;;;;10.18;96080.20;;;;110687;1252;41272;-69
2022/04/08 05:40:43;;;;;;;11.60;5.20;;;;;10.30;96083.60;;;;110828;1251;41926;-70
2022/04/08 05:43:12;;;;;;;10.30;5.30;;;;;10.40;96085.40;;;;110782;1252;41958;-70
2022/04/08 05:45:42;;;;;;;13.00;5.90;;;;;10.60;96083.20;;;;110556;1252;41270;-69
2022/04/08 05:48:12;;;;;;;;;;;;;10.70;96079.40;;;;110900;1249;41690;-69
2022/04/08 05:50:42;;;;;;;9.50;4.80;;;;;10.90;96075.60;;;;110843;1249;41200;-69
2022/04/08 05:53:11;;;;;;;11.90;5.70;;;;;11.00;96069.00;;;;110822;1251;41191;-70
2022/04/08 05:56:04;;;;;;;16.00;5.90;;;;;11.20;96062.60;;;;110775;1250;41146;-70
2022/04/08 05:58:33;;;;;;;11.50;5.20;;;;;11.30;96064.80;;;;110687;1252;41624;-70
2022/04/08 06:01:03;;;;;;;11.50;5.20;;;;;11.40;96056.80;;;;110745;1253;41428;-70
2022/04/08 06:03:32;;;;;;;11.40;5.10;;;;;11.60;96057.80;;;;110588;1253;41273;-69
2022/04/08 06:06:01;;;;;;;11.70;4.90;;;;;11.78;96064.80;;;;110843;1250;41267;-70
2022/04/08 06:08:30;;;;;;;12.10;5.80;;;;;11.98;96066.40;;;;110675;1252;40912;-68
2022/04/08 06:10:59;;;;;;;11.60;5.00;;;;;12.16;96059.00;;;;110811;1251;41257;-70
2022/04/08 06:13:27;;;;;;;11.40;5.60;;;;;12.30;96041.80;;;;110698;1252;41143;-69
2022/04/08 06:15:56;;;;;;;11.50;5.20;;;;;12.48;96032.00;;;;110797;1251;41168;-69
2022/04/08 06:18:25;;;;;;;11.30;5.50;;;;;12.60;96031.80;;;;110859;1250;41134;-69
2022/04/08 06:20:54;;;;;;;14.10;6.30;;;;;12.78;96026.60;;;;110687;1251;41894;-69
2022/04/08 06:23:23;;;;;;;10.30;5.10;;;;;12.90;96018.20;;;;110872;1249;41154;-70
2022/04/08 06:25:52;;;;;;;11.70;5.40;;;;;13.00;96017.80;;;;110665;1250;297858;-70
2022/04/08 06:28:21;;;;;;;12.00;5.20;;;;;13.18;96019.60;;;;110871;1249;41783;-70
2022/04/08 06:30:50;;;;;;;10.40;5.50;;;;;13.30;96018.20;;;;110773;1249;42561;-70
2022/04/08 06:33:19;;;;;;;12.40;5.40;;;;;13.42;96024.80;;;;110957;1249;41152;-70
2022/04/08 06:35:48;;;;;;;10.20;4.90;;;;;13.50;96027.00;;;;110861;1249;41134;-70
2022/04/08 06:38:17;;;;;;;10.10;4.80;;;;;13.60;96021.00;;;;110854;1250;41148;-69
2022/04/08 06:40:46;;;;;;;10.50;5.00;;;;;13.70;96020.20;;;;110555;1253;41522;-69
2022/04/08 06:43:15;;;;;;;11.90;5.50;;;;;13.80;96025.60;;;;110732;1252;41629;-69
2022/04/08 06:45:44;;;;;;;11.80;5.60;;;;;13.90;96031.20;;;;110805;1252;41430;-69
2022/04/08 06:48:13;;;;;;;13.60;5.40;;;;;14.00;96033.80;;;;110692;1252;41932;-69
2022/04/08 06:50:42;;;;;;;10.70;5.20;;;;;13.90;96054.80;;;;110676;1253;41256;-69
2022/04/08 06:53:11;;;;;;;12.30;5.10;;;;;14.00;96060.80;;;;110648;1253;41732;-69
2022/04/08 06:55:39;;;;;;;11.00;5.80;;;;;14.00;96065.20;;;;110769;1252;41721;-69
2022/04/08 06:58:08;;;;;;;11.90;6.00;;;;;13.92;96074.00;;;;110702;1252;41160;-68
2022/04/08 07:00:37;;;;;;;11.40;5.90;;;;;13.80;96081.80;;;;110918;1251;41146;-68
2022/04/08 07:03:06;;;;;;;12.90;6.30;;;;;13.66;96085.80;;;;110792;1249;41160;-69
2022/04/08 07:05:35;;;;;;;11.70;5.90;;;;;13.70;96094.60;;;;110754;1250;41623;-69
2022/04/08 07:08:04;;;;;;;13.40;5.80;;;;;13.70;96100.60;;;;110597;1252;41248;-69
2022/04/08 07:10:33;;;;;;;11.60;6.00;;;;;13.70;96106.40;;;;110899;1250;41159;-70
2022/04/08 07:13:02;;;;;;;13.80;6.10;;;;;13.80;96115.80;;;;110741;1252;41265;-71
2022/04/08 07:15:31;;;;;;;11.30;5.90;;;;;13.90;96113.00;;;;110829;1251;41621;-69
2022/04/08 07:18:03;;;;;;;12.00;6.20;;;;;13.90;96115.00;;;;110668;1252;41133;-70
2022/04/08 07:20:32;;;;;;;11.90;5.80;;;;;14.00;96119.60;;;;110564;1253;41168;-70
2022/04/08 07:23:03;;;;;;;12.80;5.60;;;;;14.20;96135.80;;;;110733;1252;41159;-71
2022/04/08 07:25:32;;;;;;;12.50;6.10;;;;;14.36;96144.40;;;;110928;1250;42358;-71
2022/04/08 07:28:01;;;;;;;11.60;5.60;;;;;14.56;96137.60;;;;110833;1252;41264;-71
2022/04/08 07:30:31;;;;;;;10.70;5.30;;;;;14.70;96139.80;;;;110412;1252;41168;-71
2022/04/08 07:33:01;;;;;;;10.40;5.70;;;;;14.90;96138.60;;;;110654;1252;41164;-70
2022/04/08 07:35:31;;;;;;;14.00;5.20;;;;;15.10;96149.00;;;;110756;1252;41152;-72
2022/04/08 07:38:05;;;;;;;9.90;5.50;;;;;15.10;96145.80;;;;110673;1252;41152;-71
2022/04/08 07:40:34;;;;;;;12.90;5.30;;;;;15.12;96145.20;;;;110781;1251;41776;-71
2022/04/08 07:43:03;;;;;;;10.20;5.20;;;;;15.20;96151.00;;;;110635;1254;41615;-70
2022/04/08 07:45:33;;;;;;;10.90;5.40;;;;;15.30;96156.60;;;;110687;1252;41169;-72
2022/04/08 07:48:02;;;;;;;9.80;5.20;;;;;15.32;96168.80;;;;110692;1253;41817;-72
2022/04/08 07:50:32;;;;;;;10.00;4.90;;;;;15.40;96177.60;;;;110649;1252;41384;-71
2022/04/08 07:53:01;;;;;;;14.30;5.80;;;;;15.40;96179.60;;;;110775;1252;41732;-71
2022/04/08 07:55:30;;;;;;;12.60;5.20;;;;;15.50;96185.40;;;;110687;1252;41266;-71
2022/04/08 07:57:59;;;;;;;11.80;4.70;;;;;15.50;96184.00;;;;110807;1252;41186;-71
2022/04/08 08:00:29;;;;;;;11.90;4.80;;;;;15.68;96176.00;;;;110567;1253;41158;-71
2022/04/08 08:02:58;;;;;;;13.00;5.50;;;;;16.06;96180.80;;;;110779;1251;41901;-71
2022/04/08 08:05:28;;;;;;;9.70;4.60;;;;;16.14;96185.80;;;;110670;1252;41146;-71
2022/04/08 08:08:01;;;;;;;9.60;4.20;;;;;16.20;96185.40;;;;110560;1252;41192;-71
2022/04/08 08:10:35;;;;;;;11.00;4.90;;;;;16.56;96179.40;;;;110443;1252;41834;-71
2022/04/08 08:13:04;;;;;;;14.20;4.70;;;;;16.70;96187.80;;;;110750;1253;41747;-73
2022/04/08 08:15:36;;;;;;;11.00;4.70;;;;;16.70;96192.40;;;;110808;1250;41155;-72
2022/04/08 08:18:07;;;;;;;9.40;4.60;;;;;16.64;96201.20;;;;110766;1251;41936;-71
2022/04/08 08:20:37;;;;;;;;;;;;;16.72;96198.20;;;;110867;1251;41261;-71
2022/04/08 08:23:06;;;;;;;15.60;4.90;;;;;16.78;96204.80;;;;110831;1252;42240;-71
2022/04/08 08:25:35;;;;;;;10.20;4.00;;;;;16.70;96208.00;;;;110659;1252;41145;-71
2022/04/08 08:28:04;;;;;;;15.00;5.20;;;;;16.76;96210.60;;;;110762;1251;41383;-71
2022/04/08 08:30:34;;;;;;;11.00;4.00;;;;;17.02;96215.40;;;;110790;1252;41408;-71
2022/04/08 08:33:07;;;;;;;10.20;4.70;;;;;17.34;96206.40;;;;110724;1253;41188;-71
2022/04/08 08:35:36;;;;;;;11.80;5.00;;;;;17.66;96208.60;;;;110650;1254;41266;-71
2022/04/08 08:38:05;;;;;;;12.50;5.90;;;;;17.60;96214.00;;;;110669;1253;41186;-69
2022/04/08 08:40:34;;;;;;;10.00;4.20;;;;;17.60;96216.80;;;;110836;1250;41631;-72
2022/04/08 08:43:08;;;;;;;9.00;4.40;;;;;17.36;96221.20;;;;110722;1252;41206;-72
2022/04/08 08:45:37;;;;;;;9.40;4.00;;;;;17.40;96224.20;;;;110654;1253;41316;-71
2022/04/08 08:48:06;;;;;;;8.60;3.60;;;;;17.60;96226.60;;;;110672;1253;41185;-70
2022/04/08 08:50:38;;;;;;;10.20;4.20;;;;;17.60;96227.40;;;;110683;1252;41162;-71
2022/04/08 08:53:07;;;;;;;9.20;3.90;;;;;17.80;96220.40;;;;110617;1254;42229;-71
2022/04/08 08:55:36;;;;;;;10.70;3.80;;;;;17.80;96227.60;;;;110598;1252;42349;-71
2022/04/08 08:58:05;;;;;;;10.60;3.50;;;;;18.24;96228.40;;;;110661;1253;42088;-71
2022/04/08 09:00:35;;;;;;;9.00;3.90;;;;;18.74;96222.00;;;;110884;1250;41775;-72
2022/04/08 09:03:04;;;;;;;8.40;3.40;;;;;19.14;96216.40;;;;110796;1251;41306;-72
2022/04/08 09:05:42;;;;;;;8.00;3.40;;;;;19.20;96218.00;;;;110651;1253;41182;-72
2022/04/08 09:08:13;;;;;;;9.00;3.30;;;;;19.50;96231.40;;;;110799;1250;41155;-72
2022/04/08 09:10:50;;;;;;;9.20;3.40;;;;;19.98;96224.40;;;;110930;1250;41147;-72
2022/04/08 09:13:20;;;;;;;8.40;3.30;;;;;20.30;96224.60;;;;110992;1251;42518;-72
2022/04/08 09:15:58;;;;;;;9.80;3.20;;;;;20.60;96212.80;;;;110878;1253;41141;-72
2022/04/08 09:18:31;;;;;;;6.40;2.90;;;;;20.78;96212.20;;;;111024;1250;42053;-70
2022/04/08 09:21:05;;;;;;;6.40;2.80;;;;;20.60;96216.80;;;;110835;1250;41154;-70
2022/04/08 09:23:34;;;;;;;7.30;2.50;;;;;20.90;96227.00;;;;110729;1252;41260;-72
2022/04/08 09:26:05;;;;;;;7.30;2.80;;;;;21.20;96224.40;;;;110738;1251;40945;-72
2022/04/08 09:28:37;;;;;;;;;;;;;21.52;96221.00;;;;110963;1251;41209;-71
2022/04/08 09:31:06;;;;;;;7.80;2.90;;;;;21.80;96231.00;;;;110930;1251;41856;-71
2022/04/08 09:33:35;;;;;;;8.00;3.20;;;;;22.04;96236.40;;;;110685;1250;42112;-72
2022/04/08 09:36:04;;;;;;;5.90;2.50;;;;;22.20;96236.00;;;;110943;1250;41263;-72
2022/04/08 09:38:34;;;;;;;8.00;2.80;;;;;22.16;96240.00;;;;110582;1250;41941;-72
2022/04/08 09:41:06;;;;;;;6.70;2.90;;;;;22.50;96245.80;;;;110925;1251;41142;-72
2022/04/08 09:43:37;;;;;;;7.20;2.90;;;;;22.70;96252.00;;;;110942;1250;41139;-72
2022/04/08 09:46:17;;;;;;;5.70;2.50;;;;;22.80;96245.00;;;;110873;1252;42404;-72
2022/04/08 09:48:48;;;;;;;7.00;2.80;;;;;22.30;96252.20;;;;110744;1251;41174;-72
2022/04/08 09:51:23;;;;;;;7.70;3.00;;;;;22.10;96255.60;;;;110951;1250;41157;-72
2022/04/08 09:53:57;;;;;;;7.40;2.90;;;;;22.14;96252.80;;;;110960;1250;41506;-72
2022/04/08 09:56:27;;;;;;;8.10;3.20;;;;;22.16;96246.20;;;;110862;1251;41871;-73
2022/04/08 09:59:08;;;;;;;8.90;3.00;;;;;22.30;96249.40;;;;110737;1253;41013;-70
2022/04/08 10:01:39;;;;;;;8.40;3.60;;;;;22.86;96261.80;;;;110966;1251;41233;-71
2022/04/08 10:04:09;;;;;;;10.40;3.90;;;;;23.50;96268.40;;;;110990;1250;41172;-70
2022/04/08 10:06:40;;;;;;;10.70;4.00;;;;;23.26;96277.60;;;;110784;1252;41040;-71
2022/04/08 10:09:11;;;;;;;9.40;3.90;;;;;23.10;96285.60;;;;110746;1252;42259;-71
2022/04/08 10:11:50;;;;;;;8.20;3.80;;;;;23.80;96290.00;;;;110858;1250;41257;-70
2022/04/08 10:14:28;;;;;;;11.60;4.10;;;;;23.40;96292.20;;;;110749;1251;41614;-71
2022/04/08 10:16:57;;;;;;;8.80;3.60;;;;;22.66;96294.60;;;;110662;1253;41717;-70
2022/04/08 10:19:29;;;;;;;7.40;2.90;;;;;22.22;96299.40;;;;110759;1252;42565;-71
2022/04/08 10:22:00;;;;;;;7.70;3.20;;;;;22.36;96316.60;;;;110827;1251;41500;-72
2022/04/08 10:24:31;;;;;;;7.10;3.10;;;;;22.28;96316.00;;;;110741;1252;40907;-71
2022/04/08 10:27:09;;;;;;;10.70;3.30;;;;;21.72;96325.40;;;;110759;1251;41137;-72
2022/04/08 10:29:39;;;;;;;9.30;3.90;;;;;21.70;96321.40;;;;110765;1252;41637;-72
2022/04/08 10:32:15;;;;;;;7.70;3.40;;;;;21.80;96321.00;;;;110770;1252;41549;-72
2022/04/08 10:34:49;;;;;;;6.00;2.60;;;;;21.32;96326.20;;;;110732;1251;41214;-71
2022/04/08 10:37:24;;;;;;;6.10;2.80;;;;;20.82;96334.80;;;;110753;1251;42407;-71
2022/04/08 10:40:04;;;;;;;6.30;2.80;;;;;20.32;96340.60;;;;110783;1252;41918;-72
2022/04/08 10:42:34;;;;;;;5.70;2.70;;;;;19.90;96344.60;;;;110773;1250;41709;-72
2022/04/08 10:45:15;;;;;;;5.20;2.30;;;;;19.86;96339.40;;;;110653;1253;41136;-71
2022/04/08 10:47:48;;;;;;;8.70;3.20;;;;;21.02;96339.40;;;;110764;1252;41228;-72
2022/04/08 10:50:29;;;;;;;6.20;2.70;;;;;21.60;96336.80;;;;110756;1252;41260;-72
2022/04/08 10:53:13;;;;;;;8.10;2.90;;;;;21.40;96343.40;;;;110868;1252;41842;-74
2022/04/08 10:55:56;;;;;;;6.30;2.60;;;;;21.08;96346.00;;;;110806;1252;41158;-71
2022/04/08 10:58:32;;;;;;;6.20;2.60;;;;;20.50;96344.20;;;;110789;1252;41627;-71
2022/04/08 11:01:22;;;;;;;6.20;2.50;;;;;20.20;96352.00;;;;110743;1252;41143;-69
2022/04/08 11:04:00;;;;;;;5.40;2.10;;;;;19.90;96353.80;;;;110756;1252;41175;-70
2022/04/08 11:06:34;;;;;;;8.50;3.10;;;;;20.00;96357.00;;;;110781;1251;41140;-71
2022/04/08 11:09:04;;;;;;;7.30;2.60;;;;;20.10;96359.40;;;;110808;1252;41490;-71
2022/04/08 11:11:37;;;;;;;4.60;2.20;;;;;20.20;96355.20;;;;110722;1251;41212;-71
2022/04/08 11:14:07;;;;;;;6.90;2.70;;;;;20.20;96357.80;;;;110739;1252;41162;-72
2022/04/08 11:16:40;;;;;;;6.60;2.60;;;;;20.20;96342.80;;;;110731;1252;41189;-71
2022/04/08 11:19:11;;;;;;;6.90;2.50;;;;;20.20;96342.60;;;;110719;1253;41213;-71
2022/04/08 11:21:42;;;;;;;8.40;2.50;;;;;20.52;96345.00;;;;110678;1254;41338;-71
2022/04/08 11:24:11;;;;;;;;;;;;;20.78;96339.00;;;;110636;1252;41162;-70
2022/04/08 11:26:47;;;;;;;5.10;2.30;;;;;21.08;96331.40;;;;110479;1254;41641;-70
2022/04/08 11:29:27;;;;;;;6.90;2.40;;;;;21.30;96332.00;;;;110711;1253;41182;-70
2022/04/08 11:32:07;;;;;;;13.50;3.20;;;;;21.78;96329.20;;;;110735;1252;41486;-71
2022/04/08 11:34:37;;;;;;;6.00;2.40;;;;;22.10;96336.80;;;;110771;1251;41181;-70
2022/04/08 11:37:05;;;;;;;5.20;2.40;;;;;22.06;96338.40;;;;110694;1254;41165;-72
2022/04/08 11:39:34;;;;;;;5.30;1.90;;;;;22.10;96333.80;;;;110443;1254;41801;-71
2022/04/08 11:42:04;;;;;;;5.90;2.20;;;;;22.32;96334.20;;;;110479;1252;41628;-70
2022/04/08 11:44:34;;;;;;;5.50;2.10;;;;;22.80;96337.80;;;;110562;1254;41428;-71
2022/04/08 11:47:07;;;;;;;6.10;1.80;;;;;23.10;96342.00;;;;110685;1252;41142;-71
2022/04/08 11:49:36;;;;;;;4.30;1.70;;;;;23.00;96351.60;;;;110722;1252;41349;-71
2022/04/08 11:52:08;;;;;;;5.00;1.90;;;;;23.00;96345.40;;;;110637;1254;41715;-71
2022/04/08 11:54:38;;;;;;;5.10;1.90;;;;;23.00;96334.20;;;;110673;1253;41628;-71
2022/04/08 11:57:31;;;;;;;4.00;1.70;;;;;23.00;96330.00;;;;110706;1252;41916;-71
2022/04/08 12:00:04;;;;;;;6.80;2.30;;;;;23.20;96318.00;;;;110778;1251;41275;-71
2022/04/08 12:02:42;;;;;;;5.30;2.00;;;;;23.30;96315.40;;;;110708;1252;41604;-71
2022/04/08 12:05:24;;;;;;;5.50;2.00;;;;;23.30;96314.00;;;;110613;1252;41154;-71
2022/04/08 12:08:00;;;;;;;4.60;1.80;;;;;23.00;96314.80;;;;110705;1252;41260;-72
2022/04/08 12:10:29;;;;;;;5.20;1.80;;;;;22.80;96312.20;;;;110719;1252;41270;-72
2022/04/08 12:13:12;;;;;;;4.00;1.90;;;;;22.62;96305.00;;;;110707;1252;41252;-71
2022/04/08 12:15:47;;;;;;;5.70;2.20;;;;;22.60;96312.60;;;;110747;1251;41394;-72
2022/04/08 12:18:21;;;;;;;6.40;1.80;;;;;22.70;96314.00;;;;110797;1252;41507;-72
2022/04/08 12:20:59;;;;;;;4.20;1.90;;;;;22.96;96329.00;;;;110733;1252;41188;-71
2022/04/08 12:23:28;;;;;;;6.10;1.90;;;;;23.00;96322.60;;;;110729;1252;41171;-72
2022/04/08 12:25:58;;;;;;;4.70;2.00;;;;;22.80;96328.40;;;;110882;1252;41641;-71
2022/04/08 12:28:31;;;;;;;;;;;;;22.60;96331.00;;;;110686;1252;41937;-72